createdAt,value
2023-03-27T00:01:13.475Z,16.70
2023-03-27T00:03:41.374Z,11.70
2023-03-27T00:06:11.706Z,13.40
2023-03-27T00:11:07.208Z,14.20
2023-03-27T00:13:35.383Z,11.80
2023-03-27T00:16:03.275Z,12.10
2023-03-27T00:18:30.891Z,12.90
2023-03-27T00:20:59.148Z,10.50
2023-03-27T00:23:28.545Z,11.80
2023-03-27T00:25:56.948Z,10.60
2023-03-27T00:28:26.055Z,11.90
2023-03-27T00:30:54.938Z,10.70
2023-03-27T00:33:23.799Z,12.50
2023-03-27T00:35:51.967Z,11.40
2023-03-27T00:38:20.209Z,12.20
2023-03-27T00:40:48.964Z,15.20
2023-03-27T00:43:34.172Z,15.00
2023-03-27T00:46:24.522Z,12.40
2023-03-27T00:48:52.644Z,12.40
2023-03-27T00:51:23.762Z,11.10
2023-03-27T00:53:52.341Z,9.40
2023-03-27T00:56:19.925Z,9.10
2023-03-27T00:58:54.164Z,9.20
2023-03-27T01:01:24.725Z,9.60
2023-03-27T01:03:53.702Z,9.50
2023-03-27T01:06:21.800Z,10.20
2023-03-27T01:08:49.572Z,9.00
2023-03-27T01:11:29.340Z,9.20
2023-03-27T01:14:05.865Z,10.20
2023-03-27T01:16:52.868Z,10.50
2023-03-27T01:19:26.247Z,11.30
2023-03-27T01:21:56.589Z,11.40
2023-03-27T01:24:37.015Z,12.70
2023-03-27T01:27:43.090Z,11.30
2023-03-27T01:30:24.124Z,10.90
2023-03-27T01:33:38.321Z,9.80
2023-03-27T01:36:28.697Z,10.00
2023-03-27T01:39:14.424Z,10.60
2023-03-27T01:41:41.953Z,9.60
2023-03-27T01:44:23.689Z,11.70
2023-03-27T01:47:01.661Z,8.80
2023-03-27T01:49:37.100Z,9.90
2023-03-27T01:52:10.211Z,8.40
2023-03-27T01:54:44.105Z,7.90
2023-03-27T01:57:22.740Z,7.90
2023-03-27T02:00:18.628Z,7.40
2023-03-27T02:02:53.281Z,6.50
2023-03-27T02:05:28.301Z,9.00
2023-03-27T02:08:20.298Z,8.40
2023-03-27T02:10:56.380Z,7.60
2023-03-27T02:15:58.658Z,7.00
2023-03-27T02:18:34.811Z,8.50
2023-03-27T02:21:03.390Z,8.40
2023-03-27T02:23:30.988Z,8.20
2023-03-27T02:25:59.789Z,9.40
2023-03-27T02:29:01.668Z,8.90
2023-03-27T02:32:12.981Z,9.10
2023-03-27T02:34:56.559Z,8.80
2023-03-27T02:37:49.300Z,9.70
2023-03-27T02:40:44.806Z,11.10
2023-03-27T02:43:21.684Z,9.40
2023-03-27T02:45:54.554Z,9.60
2023-03-27T02:48:24.965Z,11.60
2023-03-27T02:50:58.994Z,11.60
2023-03-27T02:53:30.126Z,10.30
2023-03-27T02:56:02.583Z,11.50
2023-03-27T02:58:52.493Z,9.50
2023-03-27T03:01:21.913Z,9.90
2023-03-27T03:03:58.265Z,11.40
2023-03-27T03:08:53.596Z,10.20
2023-03-27T03:11:21.928Z,11.10
2023-03-27T03:13:49.512Z,10.00
2023-03-27T03:16:17.105Z,9.80
2023-03-27T03:18:44.702Z,11.00
2023-03-27T03:21:12.297Z,11.70
2023-03-27T03:23:39.877Z,12.50
2023-03-27T03:26:07.633Z,12.50
2023-03-27T03:28:35.209Z,11.50
2023-03-27T03:31:02.871Z,10.90
2023-03-27T03:33:31.227Z,11.20
2023-03-27T03:35:58.782Z,12.20
2023-03-27T03:38:27.697Z,12.10
2023-03-27T03:40:57.722Z,12.20
2023-03-27T03:43:27.417Z,12.50
2023-03-27T03:45:55.598Z,12.50
2023-03-27T03:48:23.753Z,12.80
2023-03-27T03:50:51.364Z,13.60
2023-03-27T03:53:21.078Z,12.80
2023-03-27T03:55:51.978Z,13.10
2023-03-27T03:58:19.770Z,13.50
2023-03-27T04:00:47.353Z,13.30
2023-03-27T04:03:15.696Z,12.70
2023-03-27T04:05:43.355Z,13.40
2023-03-27T04:08:10.964Z,12.70
2023-03-27T04:10:39.966Z,13.90
2023-03-27T04:13:07.533Z,12.60
2023-03-27T04:15:35.121Z,13.90
2023-03-27T04:18:03.262Z,11.10
2023-03-27T04:20:30.876Z,13.70
2023-03-27T04:22:58.454Z,12.90
2023-03-27T04:25:26.024Z,13.60
2023-03-27T04:27:53.585Z,13.20
2023-03-27T04:30:23.515Z,13.60
2023-03-27T04:32:53.161Z,14.30
2023-03-27T04:35:21.753Z,12.80
2023-03-27T04:37:49.283Z,14.40
2023-03-27T04:40:17.210Z,14.30
2023-03-27T04:42:45.333Z,14.40
2023-03-27T04:45:15.301Z,15.40
2023-03-27T04:47:43.464Z,14.30
2023-03-27T04:50:12.080Z,16.00
2023-03-27T04:52:39.668Z,15.60
2023-03-27T04:55:07.641Z,15.70
2023-03-27T04:57:35.223Z,14.60
2023-03-27T05:00:04.665Z,15.10
2023-03-27T05:02:32.262Z,14.10
2023-03-27T05:04:59.890Z,13.80
2023-03-27T05:07:27.724Z,14.60
2023-03-27T05:09:55.431Z,13.80
2023-03-27T05:12:23.044Z,13.20
2023-03-27T05:14:50.636Z,15.00
2023-03-27T05:17:18.230Z,13.10
2023-03-27T05:19:46.221Z,12.40
2023-03-27T05:22:13.788Z,12.50
2023-03-27T05:24:41.380Z,12.60
2023-03-27T05:27:09.021Z,11.50
2023-03-27T05:29:46.977Z,12.10
2023-03-27T05:32:15.358Z,10.40
2023-03-27T05:34:43.025Z,9.20
2023-03-27T05:37:10.581Z,10.10
2023-03-27T05:39:38.206Z,10.80
2023-03-27T05:42:05.818Z,10.50
2023-03-27T05:44:33.389Z,10.70
2023-03-27T05:47:00.952Z,11.90
2023-03-27T05:49:28.559Z,10.20
2023-03-27T05:51:56.258Z,9.70
2023-03-27T05:54:24.417Z,10.40
2023-03-27T05:56:52.091Z,9.90
2023-03-27T05:59:19.690Z,10.00
2023-03-27T06:01:47.704Z,9.70
2023-03-27T06:04:16.563Z,9.60
2023-03-27T06:06:44.871Z,10.50
2023-03-27T06:09:12.526Z,11.00
2023-03-27T06:11:40.124Z,12.30
2023-03-27T06:14:07.675Z,10.60
2023-03-27T06:16:35.254Z,10.50
2023-03-27T06:19:02.836Z,10.00
2023-03-27T06:21:30.411Z,11.00
2023-03-27T06:23:57.986Z,10.40
2023-03-27T06:26:25.539Z,9.60
2023-03-27T06:28:53.259Z,9.60
2023-03-27T06:31:20.890Z,8.50
2023-03-27T06:33:48.489Z,9.50
2023-03-27T06:36:16.124Z,7.70
2023-03-27T06:38:43.728Z,8.20
2023-03-27T06:41:11.327Z,10.40
2023-03-27T06:43:38.926Z,8.60
2023-03-27T06:46:06.973Z,10.80
2023-03-27T06:48:34.694Z,10.60
2023-03-27T06:51:02.332Z,8.90
2023-03-27T06:53:32.112Z,9.70
2023-03-27T06:56:03.318Z,7.30
2023-03-27T06:58:30.950Z,8.10
2023-03-27T07:00:58.790Z,8.20
2023-03-27T07:03:26.412Z,6.20
2023-03-27T07:05:54.132Z,9.30
2023-03-27T07:08:24.868Z,9.80
2023-03-27T07:11:09.995Z,8.20
2023-03-27T07:13:39.875Z,10.90
2023-03-27T07:16:08.668Z,10.30
2023-03-27T07:18:36.330Z,10.70
2023-03-27T07:21:04.009Z,10.00
2023-03-27T07:23:31.705Z,9.20
2023-03-27T07:26:00.548Z,7.90
2023-03-27T07:28:28.294Z,9.20
2023-03-27T07:30:56.277Z,9.00
2023-03-27T07:33:24.244Z,8.30
2023-03-27T07:35:51.938Z,9.70
2023-03-27T07:38:19.514Z,9.90
2023-03-27T07:40:47.080Z,9.90
2023-03-27T07:43:14.660Z,10.00
2023-03-27T07:45:42.532Z,10.80
2023-03-27T07:48:13.680Z,10.20
2023-03-27T07:50:41.781Z,9.40
2023-03-27T07:53:09.479Z,8.30
2023-03-27T07:55:57.385Z,7.40
2023-03-27T07:58:25.677Z,10.10
2023-03-27T08:00:53.384Z,9.00
2023-03-27T08:03:21.547Z,11.40
2023-03-27T08:05:54.705Z,10.70
2023-03-27T08:08:22.398Z,10.30
2023-03-27T08:10:50.850Z,11.10
2023-03-27T08:13:18.456Z,9.30
2023-03-27T08:15:46.213Z,7.30
2023-03-27T08:18:13.822Z,10.20
2023-03-27T08:20:41.540Z,12.20
2023-03-27T08:23:09.171Z,10.20
2023-03-27T08:25:36.790Z,11.80
2023-03-27T08:28:04.362Z,13.00
2023-03-27T08:30:32.082Z,16.30
2023-03-27T08:32:59.719Z,17.00
2023-03-27T08:35:27.370Z,14.80
2023-03-27T08:37:54.962Z,12.10
2023-03-27T08:40:29.618Z,18.60
2023-03-27T08:43:03.646Z,16.30
2023-03-27T08:45:45.136Z,19.60
2023-03-27T08:48:21.214Z,18.00
2023-03-27T08:51:38.079Z,16.20
2023-03-27T08:54:18.866Z,13.80
2023-03-27T08:56:46.581Z,14.50
2023-03-27T08:59:21.256Z,19.70
2023-03-27T09:02:03.736Z,17.60
2023-03-27T09:04:50.970Z,19.20
2023-03-27T09:07:41.727Z,17.60
2023-03-27T09:10:30.764Z,14.40
2023-03-27T09:13:13.186Z,12.30
2023-03-27T09:18:23.504Z,15.30
2023-03-27T09:20:55.906Z,16.80
2023-03-27T09:23:37.971Z,13.20
2023-03-27T09:26:31.018Z,12.40
2023-03-27T09:29:06.453Z,12.30
2023-03-27T09:31:56.877Z,15.50
2023-03-27T09:36:54.828Z,16.90
2023-03-27T09:39:28.052Z,11.80
2023-03-27T09:42:07.997Z,13.30
2023-03-27T09:44:39.699Z,11.70
2023-03-27T09:47:20.903Z,10.00
2023-03-27T09:50:24.107Z,11.90
2023-03-27T09:52:52.772Z,11.10
2023-03-27T09:55:25.633Z,11.10
2023-03-27T09:57:55.249Z,9.50
2023-03-27T10:00:34.331Z,9.50
2023-03-27T10:03:05.782Z,11.80
2023-03-27T10:05:35.074Z,7.80
2023-03-27T10:08:31.040Z,9.50
2023-03-27T10:10:59.422Z,9.00
2023-03-27T10:13:28.941Z,9.90
2023-03-27T10:16:06.233Z,7.10
2023-03-27T10:18:41.032Z,7.80
2023-03-27T10:21:11.646Z,6.30
2023-03-27T10:23:46.369Z,5.80
2023-03-27T10:26:18.459Z,7.90
2023-03-27T10:28:50.996Z,6.20
2023-03-27T10:31:33.215Z,5.80
2023-03-27T10:34:03.666Z,8.90
2023-03-27T10:36:36.826Z,8.10
2023-03-27T10:39:14.002Z,10.10
2023-03-27T10:41:41.777Z,10.00
2023-03-27T10:44:18.315Z,9.70
2023-03-27T10:46:46.548Z,13.50
2023-03-27T10:49:49.880Z,12.60
2023-03-27T10:52:31.355Z,10.90
2023-03-27T10:55:25.089Z,9.30
2023-03-27T10:57:57.739Z,8.40
2023-03-27T11:00:30.160Z,8.40
2023-03-27T11:03:31.675Z,6.60
2023-03-27T11:06:03.291Z,5.70
2023-03-27T11:08:46.757Z,7.00
2023-03-27T11:11:28.156Z,6.30
2023-03-27T11:14:00.646Z,5.50
2023-03-27T11:16:41.281Z,5.60
2023-03-27T11:19:11.895Z,6.50
2023-03-27T11:21:46.954Z,6.30
2023-03-27T11:24:30.561Z,5.50
2023-03-27T11:27:22.743Z,5.60
2023-03-27T11:29:59.616Z,3.80
2023-03-27T11:32:39.039Z,5.50
2023-03-27T11:35:17.553Z,4.10
2023-03-27T11:37:53.744Z,5.90
2023-03-27T11:40:27.321Z,4.90
2023-03-27T11:42:55.130Z,6.30
2023-03-27T11:45:32.322Z,4.00
2023-03-27T11:48:11.936Z,6.40
2023-03-27T11:50:47.632Z,6.90
2023-03-27T11:53:33.199Z,6.60
2023-03-27T11:56:19.603Z,6.70
2023-03-27T11:59:15.095Z,7.50
2023-03-27T12:02:04.011Z,5.80
2023-03-27T12:05:02.799Z,5.00
2023-03-27T12:08:01.722Z,8.60
2023-03-27T12:10:34.885Z,9.10
2023-03-27T12:13:34.844Z,6.20
2023-03-27T12:16:27.562Z,5.10
2023-03-27T12:19:27.964Z,4.50
2023-03-27T12:22:21.109Z,5.20
2023-03-27T12:25:02.777Z,4.10
2023-03-27T12:27:53.919Z,4.70
2023-03-27T12:30:36.646Z,4.70
2023-03-27T12:33:32.058Z,8.30
2023-03-27T12:36:03.719Z,5.40
2023-03-27T12:38:35.988Z,5.80
2023-03-27T12:41:09.645Z,6.00
2023-03-27T12:43:38.500Z,4.50
2023-03-27T12:46:24.377Z,5.50
2023-03-27T12:49:07.106Z,5.60
2023-03-27T12:54:28.436Z,4.60
2023-03-27T12:57:21.391Z,4.30
2023-03-27T12:59:49.057Z,5.20
2023-03-27T13:02:22.372Z,4.90
2023-03-27T13:05:24.119Z,5.20
2023-03-27T13:08:03.029Z,4.90
2023-03-27T13:13:35.144Z,3.40
2023-03-27T13:16:42.626Z,4.40
2023-03-27T13:19:17.784Z,4.10
2023-03-27T13:22:12.788Z,4.40
2023-03-27T13:25:18.697Z,4.00
2023-03-27T13:27:49.054Z,4.10
2023-03-27T13:30:38.731Z,4.50
2023-03-27T13:33:23.319Z,2.80
2023-03-27T13:36:18.859Z,2.30
2023-03-27T13:38:52.697Z,3.40
2023-03-27T13:41:49.812Z,3.60
2023-03-27T13:44:45.943Z,4.60
2023-03-27T13:47:32.541Z,3.90
2023-03-27T13:50:34.859Z,4.30
2023-03-27T13:53:26.320Z,3.70
2023-03-27T13:56:15.466Z,4.10
2023-03-27T13:58:54.894Z,3.60
2023-03-27T14:01:46.521Z,4.80
2023-03-27T14:04:50.433Z,2.60
2023-03-27T14:07:48.768Z,2.50
2023-03-27T14:11:09.304Z,2.70
2023-03-27T14:13:42.485Z,2.90
2023-03-27T14:16:37.475Z,2.80
2023-03-27T14:22:14.019Z,2.50
2023-03-27T14:24:46.377Z,2.60
2023-03-27T14:27:20.368Z,2.40
2023-03-27T14:29:59.762Z,3.30
2023-03-27T14:32:27.417Z,3.60
2023-03-27T14:34:55.168Z,3.10
2023-03-27T14:37:27.739Z,2.50
2023-03-27T14:39:58.392Z,2.90
2023-03-27T14:42:32.826Z,3.50
2023-03-27T14:45:17.223Z,3.00
2023-03-27T14:47:49.485Z,2.70
2023-03-27T14:50:17.372Z,2.90
2023-03-27T14:52:44.989Z,2.90
2023-03-27T14:55:14.952Z,2.90
2023-03-27T14:57:42.664Z,2.90
2023-03-27T15:00:22.927Z,2.90
2023-03-27T15:02:52.993Z,2.50
2023-03-27T15:05:22.241Z,2.50
2023-03-27T15:07:50.450Z,2.30
2023-03-27T15:10:24.642Z,2.60
2023-03-27T15:12:53.724Z,2.30
2023-03-27T15:15:37.236Z,2.10
2023-03-27T15:18:12.528Z,2.90
2023-03-27T15:20:40.225Z,3.10
2023-03-27T15:23:16.853Z,2.50
2023-03-27T15:25:55.759Z,2.40
2023-03-27T15:29:15.991Z,2.20
2023-03-27T15:34:27.260Z,2.30
2023-03-27T15:37:00.367Z,2.10
2023-03-27T15:39:28.106Z,3.10
2023-03-27T15:42:10.561Z,2.20
2023-03-27T15:44:38.205Z,2.70
2023-03-27T15:47:23.873Z,2.60
2023-03-27T15:50:16.760Z,2.50
2023-03-27T15:52:52.117Z,2.00
2023-03-27T15:55:44.178Z,1.90
2023-03-27T15:58:24.130Z,2.20
2023-03-27T16:01:03.041Z,2.10
2023-03-27T16:03:46.582Z,2.40
2023-03-27T16:06:25.619Z,2.40
2023-03-27T16:08:53.862Z,2.20
2023-03-27T16:11:35.624Z,2.30
2023-03-27T16:14:03.231Z,2.60
2023-03-27T16:16:33.689Z,2.30
2023-03-27T16:19:12.207Z,2.00
2023-03-27T16:21:54.013Z,2.60
2023-03-27T16:24:21.584Z,3.30
2023-03-27T16:26:50.220Z,2.40
2023-03-27T16:29:18.643Z,2.20
2023-03-27T16:31:46.328Z,2.10
2023-03-27T16:34:21.958Z,2.20
2023-03-27T16:36:51.041Z,2.20
2023-03-27T16:39:18.617Z,2.30
2023-03-27T16:41:46.265Z,2.20
2023-03-27T16:44:13.871Z,2.50
2023-03-27T16:46:41.599Z,2.40
2023-03-27T16:49:11.867Z,2.30
2023-03-27T16:54:06.900Z,2.30
2023-03-27T16:56:34.738Z,2.30
2023-03-27T16:59:02.635Z,2.40
2023-03-27T17:01:30.472Z,2.30
2023-03-27T17:03:58.477Z,2.60
2023-03-27T17:06:26.072Z,2.30
2023-03-27T17:08:53.967Z,2.60
2023-03-27T17:11:21.858Z,2.20
2023-03-27T17:13:50.291Z,3.20
2023-03-27T17:16:17.974Z,2.30
2023-03-27T17:18:45.795Z,2.60
2023-03-27T17:21:13.361Z,2.40
2023-03-27T17:23:40.926Z,2.40
2023-03-27T17:26:13.483Z,2.30
2023-03-27T17:28:42.325Z,3.40
2023-03-27T17:31:10.014Z,2.80
2023-03-27T17:33:38.004Z,3.20
2023-03-27T17:36:10.527Z,2.50
2023-03-27T17:38:38.657Z,2.30
2023-03-27T17:41:06.529Z,2.50
2023-03-27T17:43:34.408Z,2.50
2023-03-27T17:46:02.484Z,2.90
2023-03-27T17:48:33.499Z,2.10
2023-03-27T17:51:08.949Z,3.50
2023-03-27T17:53:38.872Z,2.70
2023-03-27T17:56:07.768Z,3.50
2023-03-27T17:58:35.749Z,2.90
2023-03-27T18:01:14.814Z,3.20
2023-03-27T18:03:43.369Z,2.80
2023-03-27T18:06:11.005Z,3.90
2023-03-27T18:08:39.315Z,3.10
2023-03-27T18:11:09.107Z,3.30
2023-03-27T18:13:37.508Z,3.70
2023-03-27T18:16:07.425Z,3.50
2023-03-27T18:18:36.497Z,4.20
2023-03-27T18:21:04.192Z,3.40
2023-03-27T18:23:32.167Z,2.90
2023-03-27T18:26:03.500Z,4.00
2023-03-27T18:28:31.054Z,2.70
2023-03-27T18:31:01.200Z,3.00
2023-03-27T18:33:30.077Z,2.60
2023-03-27T18:35:58.494Z,2.50
2023-03-27T18:38:27.826Z,3.10
2023-03-27T18:40:56.726Z,2.90
2023-03-27T18:43:24.535Z,2.80
2023-03-27T18:46:03.605Z,3.10
2023-03-27T18:48:31.515Z,2.10
2023-03-27T18:51:05.348Z,1.50
2023-03-27T18:53:33.010Z,2.00
2023-03-27T18:56:01.966Z,4.50
2023-03-27T18:58:30.254Z,3.70
2023-03-27T19:00:58.430Z,2.20
2023-03-27T19:03:27.502Z,2.50
2023-03-27T19:06:00.104Z,3.40
2023-03-27T19:08:28.081Z,2.70
2023-03-27T19:10:55.990Z,3.40
2023-03-27T19:13:24.954Z,3.40
2023-03-27T19:15:52.628Z,3.40
2023-03-27T19:18:20.192Z,2.60
2023-03-27T19:20:47.818Z,3.70
2023-03-27T19:23:15.371Z,3.80
2023-03-27T19:25:47.787Z,3.90
2023-03-27T19:28:15.704Z,5.10
2023-03-27T19:30:43.552Z,4.30
2023-03-27T19:33:11.213Z,3.50
2023-03-27T19:35:39.055Z,3.30
2023-03-27T19:38:06.654Z,5.20
2023-03-27T19:40:34.304Z,4.10
2023-03-27T19:43:03.333Z,4.30
2023-03-27T19:45:30.948Z,3.40
2023-03-27T19:47:58.542Z,5.40
2023-03-27T19:50:26.247Z,5.00
2023-03-27T19:53:01.490Z,4.60
2023-03-27T19:55:35.597Z,4.90
2023-03-27T19:58:03.222Z,5.20
2023-03-27T20:00:31.651Z,4.30
2023-03-27T20:02:59.509Z,5.40
2023-03-27T20:05:27.785Z,5.30
2023-03-27T20:07:55.793Z,4.30
2023-03-27T20:10:23.354Z,5.80
2023-03-27T20:12:50.909Z,5.80
2023-03-27T20:15:18.447Z,4.50
2023-03-27T20:17:46.035Z,5.80
2023-03-27T20:20:13.687Z,6.30
2023-03-27T20:22:54.160Z,7.80
2023-03-27T20:25:25.108Z,5.40
2023-03-27T20:27:52.683Z,7.10
2023-03-27T20:30:20.292Z,5.90
2023-03-27T20:32:47.886Z,8.50
2023-03-27T20:35:23.743Z,10.10
2023-03-27T20:37:52.577Z,6.60
2023-03-27T20:40:20.321Z,6.40
2023-03-27T20:42:47.889Z,6.40
2023-03-27T20:45:16.759Z,5.50
2023-03-27T20:47:44.721Z,8.20
2023-03-27T20:50:12.677Z,5.10
2023-03-27T20:52:40.344Z,5.00
2023-03-27T20:55:09.536Z,7.00
2023-03-27T21:00:07.795Z,5.40
2023-03-27T21:02:35.470Z,4.70
2023-03-27T21:05:03.199Z,6.40
2023-03-27T21:07:31.272Z,7.00
2023-03-27T21:09:58.841Z,6.90
2023-03-27T21:12:26.761Z,5.90
2023-03-27T21:14:54.340Z,5.80
2023-03-27T21:17:21.946Z,6.10
2023-03-27T21:19:49.577Z,4.80
2023-03-27T21:22:17.141Z,7.10
2023-03-27T21:24:44.757Z,5.50
2023-03-27T21:27:12.325Z,4.10
2023-03-27T21:29:39.894Z,9.30
2023-03-27T21:32:07.567Z,5.00
2023-03-27T21:34:35.252Z,3.30
2023-03-27T21:37:03.017Z,5.00
2023-03-27T21:39:30.620Z,6.60
2023-03-27T21:41:58.249Z,6.80
2023-03-27T21:44:25.829Z,7.40
2023-03-27T21:46:53.408Z,6.20
2023-03-27T21:49:20.982Z,5.00
2023-03-27T21:51:48.541Z,4.90
2023-03-27T21:54:16.089Z,6.20
2023-03-27T21:56:43.692Z,4.30
2023-03-27T21:59:11.292Z,4.40
2023-03-27T22:01:38.938Z,5.60
2023-03-27T22:04:06.570Z,4.40
2023-03-27T22:06:34.143Z,7.20
2023-03-27T22:09:01.762Z,6.20
2023-03-27T22:11:29.479Z,5.20
2023-03-27T22:13:57.059Z,6.10
2023-03-27T22:16:25.359Z,5.90
2023-03-27T22:18:52.983Z,6.80
2023-03-27T22:21:23.674Z,4.40
2023-03-27T22:23:52.764Z,5.20
2023-03-27T22:26:23.697Z,6.90
2023-03-27T22:28:51.510Z,5.00
2023-03-27T22:31:20.282Z,5.60
2023-03-27T22:33:48.294Z,6.00
2023-03-27T22:36:16.777Z,6.10
2023-03-27T22:38:45.006Z,6.30
2023-03-27T22:41:13.833Z,5.00
2023-03-27T22:43:41.436Z,6.10
2023-03-27T22:46:12.459Z,5.30
2023-03-27T22:48:40.991Z,5.40
2023-03-27T22:51:10.085Z,4.90
2023-03-27T22:53:38.172Z,3.40
2023-03-27T22:56:07.394Z,3.40
2023-03-27T22:58:35.010Z,5.60
2023-03-27T23:01:03.811Z,5.60
2023-03-27T23:03:32.361Z,5.80
2023-03-27T23:06:00.211Z,5.60
2023-03-27T23:08:28.797Z,4.80
2023-03-27T23:11:04.429Z,5.30
2023-03-27T23:13:33.946Z,5.10
2023-03-27T23:16:01.983Z,7.00
2023-03-27T23:18:30.335Z,6.00
2023-03-27T23:21:09.196Z,6.10
2023-03-27T23:23:38.459Z,6.90
2023-03-27T23:26:06.712Z,6.00
2023-03-27T23:28:37.568Z,6.40
2023-03-27T23:31:17.071Z,4.30
2023-03-27T23:33:47.301Z,7.40
2023-03-27T23:36:20.463Z,6.30
2023-03-27T23:38:48.396Z,8.50
2023-03-27T23:41:16.540Z,5.20
2023-03-27T23:43:44.323Z,7.00
2023-03-27T23:46:12.651Z,9.80
2023-03-27T23:48:41.902Z,8.50
2023-03-27T23:51:13.487Z,5.50
2023-03-27T23:53:41.281Z,7.70
2023-03-27T23:56:09.706Z,8.50
2023-03-27T23:58:37.593Z,8.30
